Time;durP1;ratioP1;P1;durP2;ratioP2;P2;SDS_P1;SDS_P2;PMS_P1;PMS_P2;Temp;Humidity;BMP_temperature;BMP_pressure;BME280_temperature;BME280_humidity;BME280_pressure;Samples;Min_cycle;Max_cycle;Signal;HPM_P1;HPM_P2
2021/11/28 00:01:15;;;;;;;15.72;9.98;;;;;;;4.98;67.27;99310.79;1803800;78;21085;-71
2021/11/28 00:03:42;;;;;;;14.93;10.18;;;;;;;5.03;67.30;99306.88;1743464;80;21509;-71
2021/11/28 00:06:21;;;;;;;21.95;11.15;;;;;;;5.06;67.74;99301.93;1778667;78;21137;-71
2021/11/28 00:09:00;;;;;;;20.57;10.55;;;;;;;5.07;67.90;99311.39;1785958;78;21622;-71
2021/11/28 00:11:30;;;;;;;17.85;11.12;;;;;;;5.08;67.98;99310.91;1775800;79;21088;-71
2021/11/28 00:16:33;;;;;;;23.60;11.78;;;;;;;5.02;67.80;99332.59;1789835;79;21100;-70
2021/11/28 00:19:00;;;;;;;23.45;10.68;;;;;;;5.00;67.81;99338.87;1783615;78;21060;-71
2021/11/28 00:21:27;;;;;;;21.30;10.90;;;;;;;4.95;67.67;99341.81;1788035;78;22418;-71
2021/11/28 00:23:54;;;;;;;16.93;10.98;;;;;;;4.89;67.80;99342.73;1787225;78;21045;-70
2021/11/28 00:26:22;;;;;;;22.45;12.07;;;;;;;4.83;67.90;99344.02;1792088;78;21524;-70
2021/11/28 00:28:48;;;;;;;17.27;10.85;;;;;;;4.80;68.05;99344.23;1790296;78;21069;-70
2021/11/28 00:31:15;;;;;;;16.20;9.58;;;;;;;4.85;67.93;99352.55;1778562;78;21050;-70
2021/11/28 00:33:42;;;;;;;18.75;9.75;;;;;;;4.87;68.19;99353.27;1763795;79;21018;-70
2021/11/28 00:36:11;;;;;;;18.17;9.63;;;;;;;4.90;68.38;99356.14;1767458;79;20971;-70
2021/11/28 00:38:37;;;;;;;15.32;10.32;;;;;;;4.94;68.38;99356.26;1741865;81;21105;-70
2021/11/28 00:41:04;;;;;;;15.80;10.90;;;;;;;4.95;68.27;99356.62;1774559;79;20997;-70
2021/11/28 00:43:31;;;;;;;16.10;11.12;;;;;;;4.94;68.14;99359.72;1765938;79;21014;-70
2021/11/28 00:45:58;;;;;;;14.75;8.93;;;;;;;4.92;68.16;99365.49;1764451;79;21058;-70
2021/11/28 00:48:29;;;;;;;15.30;10.40;;;;;;;4.90;68.35;99366.08;1769809;79;21580;-70
2021/11/28 00:51:10;;;;;;;19.23;10.95;;;;;;;4.91;68.26;99368.20;1767119;79;21082;-70
2021/11/28 00:53:22;;;;;;;20.70;10.88;;;;;;;4.89;68.09;99368.31;1756660;79;21136;-70
2021/11/28 00:55:49;;;;;;;19.10;12.70;;;;;;;4.86;68.11;99381.59;1760788;79;21136;-70
2021/11/28 00:58:16;;;;;;;24.18;12.07;;;;;;;4.81;68.07;99375.89;1765139;79;21140;-70
2021/11/28 01:00:43;;;;;;;23.15;11.33;;;;;;;4.74;68.12;99363.77;1764058;79;21053;-70
2021/11/28 01:03:11;;;;;;;17.42;11.38;;;;;;;4.76;68.46;99357.97;1763474;79;21030;-70
2021/11/28 01:05:38;;;;;;;16.32;9.75;;;;;;;4.84;68.31;99354.34;1737338;79;21065;-70
2021/11/28 01:08:06;;;;;;;20.10;10.05;;;;;;;4.90;68.55;99349.14;1781565;78;21620;-70
2021/11/28 01:10:32;;;;;;;20.50;11.30;;;;;;;4.97;68.78;99356.86;1719707;81;21556;-71
2021/11/28 01:13:00;;;;;;;21.85;12.15;;;;;;;5.00;68.78;99355.34;1751883;81;21611;-70
2021/11/28 01:15:26;;;;;;;29.23;10.95;;;;;;;4.99;69.12;99358.91;1755262;80;21205;-70
2021/11/28 01:17:55;;;;;;;23.85;11.53;;;;;;;4.99;69.26;99356.75;1760393;79;21505;-70
2021/11/28 01:20:22;;;;;;;24.95;12.73;;;;;;;4.96;69.21;99365.64;1789653;78;21589;-71
2021/11/28 01:22:51;;;;;;;34.30;14.50;;;;;;;4.93;69.13;99363.26;1785980;78;22290;-70
2021/11/28 01:25:19;;;;;;;34.95;13.30;;;;;;;4.87;68.79;99356.36;1761649;80;21521;-70
2021/11/28 01:27:46;;;;;;;36.15;14.03;;;;;;;4.77;68.81;99362.22;1758716;80;21712;-70
2021/11/28 01:30:12;;;;;;;23.35;13.72;;;;;;;4.68;69.04;99365.98;1756648;79;21047;-69
2021/11/28 01:32:39;;;;;;;24.20;13.83;;;;;;;4.68;69.20;99365.50;1808213;78;21082;-69
2021/11/28 01:35:09;;;;;;;21.68;13.48;;;;;;;4.74;69.07;99368.13;1776193;78;21049;-69
2021/11/28 01:37:38;;;;;;;20.17;13.85;;;;;;;4.75;69.08;99360.69;1800176;78;21542;-69
2021/11/28 01:40:14;;;;;;;28.70;14.65;;;;;;;4.79;69.42;99356.89;1799391;78;21910;-70
2021/11/28 01:42:51;;;;;;;28.52;16.52;;;;;;;4.82;69.66;99348.41;1756010;80;20986;-69
2021/11/28 01:45:28;;;;;;;34.90;17.05;;;;;;;4.82;69.65;99348.86;1787743;79;21530;-69
2021/11/28 01:47:57;;;;;;;31.30;15.23;;;;;;;4.79;69.44;99358.20;1799839;78;21604;-69
2021/11/28 01:50:25;;;;;;;24.98;16.65;;;;;;;4.76;69.42;99367.57;1781964;78;21090;-69
2021/11/28 01:52:54;;;;;;;25.08;16.75;;;;;;;4.69;69.12;99361.97;1805496;79;22268;-69
2021/11/28 01:55:25;;;;;;;25.57;16.02;;;;;;;4.63;69.01;99362.39;1805561;79;22057;-69
2021/11/28 01:57:52;;;;;;;26.80;17.17;;;;;;;4.57;68.92;99363.67;1753903;78;21098;-69
2021/11/28 02:00:24;;;;;;;37.93;19.23;;;;;;;4.53;69.10;99370.52;1751925;79;21561;-69
2021/11/28 02:02:52;;;;;;;31.37;19.00;;;;;;;4.48;69.18;99370.01;1787936;78;21069;-69
2021/11/28 02:07:21;;;;;;;26.37;16.32;;;;;;;4.55;68.66;99357.72;1808744;78;22610;-69
2021/11/28 02:09:49;;;;;;;24.80;14.60;;;;;;;4.53;68.41;99358.78;1763708;78;20951;-69
2021/11/28 02:12:16;;;;;;;23.95;15.48;;;;;;;4.58;68.42;99357.98;1767560;80;22049;-69
2021/11/28 02:14:43;;;;;;;22.55;14.85;;;;;;;4.61;68.70;99353.38;1771740;78;21125;-69
2021/11/28 02:17:11;;;;;;;19.23;12.73;;;;;;;4.63;68.58;99342.38;1769325;80;21711;-69
2021/11/28 02:19:38;;;;;;;17.82;10.60;;;;;;;4.61;68.42;99341.66;1765661;79;21006;-69
2021/11/28 02:22:05;;;;;;;21.60;12.82;;;;;;;4.57;68.30;99340.68;1760898;80;21121;-70
2021/11/28 02:24:33;;;;;;;20.50;11.85;;;;;;;4.52;68.06;99337.09;1771369;78;21887;-69
2021/11/28 02:26:59;;;;;;;19.15;11.57;;;;;;;4.47;67.95;99345.70;1765219;80;21097;-69
2021/11/28 02:29:28;;;;;;;17.15;11.97;;;;;;;4.42;67.84;99351.72;1736027;80;20959;-69
2021/11/28 02:31:55;;;;;;;23.67;11.43;;;;;;;4.39;68.02;99356.69;1770663;80;21509;-69
2021/11/28 02:34:22;;;;;;;16.48;10.60;;;;;;;4.37;68.18;99353.82;1771651;78;21073;-68
2021/11/28 02:36:52;;;;;;;16.45;10.05;;;;;;;4.32;68.12;99352.02;1767900;79;21967;-69
2021/11/28 02:39:20;;;;;;;17.02;11.53;;;;;;;4.31;67.96;99347.77;1737722;80;21069;-68
2021/11/28 02:41:47;;;;;;;19.20;12.40;;;;;;;4.37;67.96;99357.28;1766936;80;21121;-68
2021/11/28 02:44:16;;;;;;;19.57;13.75;;;;;;;4.41;68.05;99357.41;1749428;80;21050;-69
2021/11/28 02:46:44;;;;;;;26.85;13.45;;;;;;;4.45;68.17;99360.17;1736946;80;21668;-69
2021/11/28 02:49:11;;;;;;;25.08;15.00;;;;;;;4.40;68.16;99347.92;1769404;78;21817;-69
2021/11/28 02:51:38;;;;;;;34.03;15.15;;;;;;;4.36;68.10;99338.67;1770747;80;21117;-69
2021/11/28 02:54:05;;;;;;;22.85;14.75;;;;;;;4.31;68.12;99332.96;1774569;78;21698;-69
2021/11/28 02:56:33;;;;;;;25.20;15.53;;;;;;;4.30;68.07;99332.59;1766470;80;21016;-68
2021/11/28 02:59:01;;;;;;;25.37;13.03;;;;;;;4.25;67.99;99327.73;1773073;78;21061;-68
2021/11/28 03:01:28;;;;;;;18.67;12.58;;;;;;;4.21;67.82;99328.86;1767435;80;21116;-69
2021/11/28 03:03:57;;;;;;;22.30;13.50;;;;;;;4.14;67.72;99324.22;1738673;79;21081;-69
2021/11/28 03:06:25;;;;;;;15.58;10.10;;;;;;;4.07;68.00;99322.03;1731472;80;21086;-69
2021/11/28 03:08:52;;;;;;;13.13;9.18;;;;;;;4.08;68.18;99326.31;1768854;79;21354;-68
2021/11/28 03:11:19;;;;;;;14.38;8.65;;;;;;;4.17;68.00;99331.34;1769925;78;21108;-68
2021/11/28 03:13:50;;;;;;;12.73;9.00;;;;;;;4.22;67.84;99330.98;1772872;80;21612;-68
2021/11/28 03:16:20;;;;;;;13.18;8.68;;;;;;;4.25;67.67;99336.84;1734531;80;21079;-69
2021/11/28 03:18:48;;;;;;;14.20;9.43;;;;;;;4.26;67.52;99342.88;1767073;78;20998;-71
2021/11/28 03:21:22;;;;;;;11.30;8.08;;;;;;;4.25;67.55;99346.41;1732412;80;21010;-68
2021/11/28 03:23:50;;;;;;;13.95;8.80;;;;;;;4.22;67.27;99338.80;1736255;80;21734;-68
2021/11/28 03:26:35;;;;;;;14.33;8.68;;;;;;;4.17;67.21;99350.86;1742036;80;22249;-68
2021/11/28 03:29:15;;;;;;;12.33;7.50;;;;;;;4.09;67.22;99355.77;1771812;78;21089;-66
2021/11/28 03:32:00;;;;;;;23.70;9.00;;;;;;;3.98;67.34;99346.56;1761073;80;21161;-68
2021/11/28 03:34:37;;;;;;;20.55;9.18;;;;;;;3.87;67.70;99349.44;1766465;79;21577;-68
2021/11/28 03:37:08;;;;;;;14.13;8.48;;;;;;;3.78;67.99;99344.03;1768139;79;21470;-68
2021/11/28 03:39:35;;;;;;;13.75;8.48;;;;;;;3.77;68.06;99343.20;1713026;80;21208;-68
2021/11/28 03:42:06;;;;;;;14.00;8.25;;;;;;;3.85;68.08;99354.38;1764852;80;20999;-68
2021/11/28 03:44:33;;;;;;;14.85;8.35;;;;;;;3.89;68.25;99352.77;1768749;78;21482;-67
2021/11/28 03:47:03;;;;;;;15.68;9.08;;;;;;;3.90;68.43;99357.05;1765902;79;21098;-67
2021/11/28 03:49:30;;;;;;;22.98;9.30;;;;;;;3.86;68.84;99362.08;1735543;80;21097;-68
2021/11/28 03:51:58;;;;;;;17.67;8.60;;;;;;;3.84;69.06;99377.45;1763238;80;21804;-68
2021/11/28 03:54:25;;;;;;;22.80;10.32;;;;;;;3.81;69.09;99382.86;1738201;80;21034;-68
2021/11/28 03:56:54;;;;;;;19.50;10.10;;;;;;;3.73;69.18;99383.36;1759055;79;21174;-68
2021/11/28 03:59:23;;;;;;;25.08;10.60;;;;;;;3.69;69.64;99376.72;1768773;78;22266;-68
2021/11/28 04:01:49;;;;;;;21.37;9.83;;;;;;;3.67;69.70;99356.00;1761335;80;21580;-68
2021/11/28 04:04:16;;;;;;;14.45;8.43;;;;;;;3.67;69.77;99342.17;1737325;80;21544;-68
2021/11/28 04:07:02;;;;;;;15.38;10.40;;;;;;;3.69;69.67;99336.39;1763715;79;21055;-67
2021/11/28 04:09:29;;;;;;;15.68;9.35;;;;;;;3.83;69.74;99332.84;1754316;79;22225;-64
2021/11/28 04:11:56;;;;;;;14.68;8.03;;;;;;;3.95;69.70;99341.56;1741715;80;21165;-64
2021/11/28 04:14:23;;;;;;;14.58;8.70;;;;;;;4.04;69.64;99346.97;1751089;80;21062;-70
2021/11/28 04:16:50;;;;;;;15.45;9.35;;;;;;;4.12;69.57;99350.80;1747148;79;21120;-68
2021/11/28 04:19:17;;;;;;;12.75;8.20;;;;;;;4.16;69.74;99353.09;1750940;79;21180;-68
2021/11/28 04:21:46;;;;;;;23.15;9.60;;;;;;;4.21;69.77;99348.39;1760816;79;21003;-70
2021/11/28 04:24:13;;;;;;;17.52;10.05;;;;;;;4.23;69.67;99353.02;1710380;80;21070;-70
2021/11/28 04:26:40;;;;;;;29.75;10.63;;;;;;;4.23;69.61;99359.53;1753172;80;21058;-60
2021/11/28 04:29:07;;;;;;;16.52;9.05;;;;;;;4.18;69.28;99364.23;1755936;80;21983;-66
2021/11/28 04:31:35;;;;;;;16.60;9.93;;;;;;;4.06;69.11;99376.80;1758934;80;21063;-68
2021/11/28 04:34:03;;;;;;;19.17;9.23;;;;;;;3.89;69.60;99374.89;1761014;79;21082;-67
2021/11/28 04:36:30;;;;;;;12.07;8.58;;;;;;;3.84;69.85;99375.67;1759029;80;21101;-68
2021/11/28 04:38:57;;;;;;;13.38;8.28;;;;;;;3.84;69.76;99366.56;1735099;80;21026;-67
2021/11/28 04:41:25;;;;;;;12.70;7.97;;;;;;;3.85;69.97;99367.38;1755644;80;21152;-67
2021/11/28 04:43:53;;;;;;;16.25;9.40;;;;;;;3.89;70.58;99357.14;1755712;79;21047;-68
2021/11/28 04:46:21;;;;;;;26.05;9.88;;;;;;;3.99;71.04;99363.38;1746972;79;21089;-68
2021/11/28 04:48:48;;;;;;;14.18;8.48;;;;;;;4.05;71.33;99364.72;1728847;80;21153;-67
2021/11/28 04:51:22;;;;;;;16.37;9.55;;;;;;;4.07;71.16;99357.66;1740160;79;21109;-68
2021/11/28 04:53:49;;;;;;;14.78;9.15;;;;;;;4.06;71.13;99350.77;1733525;80;21103;-68
2021/11/28 04:56:15;;;;;;;16.85;9.65;;;;;;;4.01;71.29;99353.69;1736107;80;21062;-69
2021/11/28 04:58:42;;;;;;;21.07;9.40;;;;;;;4.03;71.15;99357.01;1744460;80;21135;-63
2021/11/28 05:01:09;;;;;;;18.48;9.78;;;;;;;4.03;70.93;99359.61;1737477;80;21171;-66
2021/11/28 05:03:36;;;;;;;17.67;8.95;;;;;;;4.04;70.86;99357.86;1751029;79;21157;-67
2021/11/28 05:06:05;;;;;;;16.65;9.43;;;;;;;4.10;70.66;99369.13;1737423;80;22381;-67
2021/11/28 05:08:50;;;;;;;12.88;8.75;;;;;;;4.18;70.41;99363.41;1748031;80;21105;-66
2021/11/28 05:11:19;;;;;;;11.88;7.58;;;;;;;4.25;70.30;99360.73;1747032;80;21604;-67
2021/11/28 05:13:47;;;;;;;13.65;8.48;;;;;;;4.34;70.34;99364.00;1759792;79;22788;-67
2021/11/28 05:16:14;;;;;;;17.35;8.00;;;;;;;4.41;70.51;99366.52;1732184;80;21133;-67
2021/11/28 05:18:48;;;;;;;18.80;9.30;;;;;;;4.45;70.71;99358.88;1730061;80;21208;-67
2021/11/28 05:21:29;;;;;;;11.57;7.75;;;;;;;4.50;70.72;99359.83;1751833;80;21706;-68
2021/11/28 05:23:55;;;;;;;17.62;8.73;;;;;;;4.51;70.57;99364.11;1748041;79;20971;-68
2021/11/28 05:26:23;;;;;;;16.12;8.30;;;;;;;4.49;70.64;99370.35;1739574;80;21011;-60
2021/11/28 05:28:51;;;;;;;20.77;8.33;;;;;;;4.46;70.72;99369.64;1733825;79;21094;-67
2021/11/28 05:31:18;;;;;;;12.65;7.53;;;;;;;4.44;70.76;99382.42;1716971;82;21182;-66
2021/11/28 05:33:58;;;;;;;11.12;7.65;;;;;;;4.37;70.59;99372.05;1703108;79;21098;-64
2021/11/28 05:36:44;;;;;;;12.47;7.58;;;;;;;4.37;70.50;99385.08;1755044;80;21149;-70
2021/11/28 05:39:11;;;;;;;13.13;7.90;;;;;;;4.33;70.39;99387.55;1757892;80;21078;-70
2021/11/28 05:41:38;;;;;;;14.00;8.10;;;;;;;4.32;70.64;99384.56;1747775;79;21142;-69
2021/11/28 05:44:05;;;;;;;16.23;8.45;;;;;;;4.32;70.94;99378.05;1757414;79;21165;-69
2021/11/28 05:46:33;;;;;;;14.15;8.43;;;;;;;4.34;71.20;99382.68;1743875;80;21255;-69
2021/11/28 05:49:18;;;;;;;23.50;10.25;;;;;;;4.34;71.44;99380.93;1761450;79;21089;-68
2021/11/28 05:52:04;;;;;;;16.75;10.48;;;;;;;4.35;71.63;99384.36;1755297;80;21132;-70
2021/11/28 05:54:31;;;;;;;19.90;9.65;;;;;;;4.26;71.52;99378.84;1752726;79;21035;-70
2021/11/28 05:56:58;;;;;;;21.87;10.28;;;;;;;4.18;71.58;99373.81;1749706;79;21058;-71
2021/11/28 05:59:26;;;;;;;15.35;9.90;;;;;;;4.08;71.64;99379.68;1731510;80;21066;-70
2021/11/28 06:01:54;;;;;;;13.58;9.40;;;;;;;4.08;71.67;99384.89;1753285;79;21118;-71
2021/11/28 06:04:20;;;;;;;15.78;8.93;;;;;;;4.17;71.50;99388.62;1753396;79;21090;-70
2021/11/28 06:06:56;;;;;;;14.33;9.15;;;;;;;4.23;71.25;99376.45;1753186;79;21569;-71
2021/11/28 06:09:24;;;;;;;21.77;9.30;;;;;;;4.29;71.34;99367.40;1757123;80;21137;-70
2021/11/28 06:11:51;;;;;;;14.58;9.20;;;;;;;4.36;71.50;99375.61;1753995;80;21074;-71
2021/11/28 06:14:18;;;;;;;18.55;9.78;;;;;;;4.37;71.62;99374.66;1755940;79;21089;-70
2021/11/28 06:16:53;;;;;;;20.27;8.83;;;;;;;4.42;72.01;99376.47;1751545;80;21141;-70
2021/11/28 06:19:39;;;;;;;;;;;;;;;4.48;71.83;99379.95;1753818;80;22103;-69
2021/11/28 06:22:09;;;;;;;15.83;8.00;;;;;;;4.51;71.69;99382.34;1743192;80;21087;-69
2021/11/28 06:24:46;;;;;;;15.98;8.53;;;;;;;4.43;71.76;99382.05;1732531;80;21103;-69
2021/11/28 06:27:19;;;;;;;14.87;6.53;;;;;;;4.40;71.69;99390.89;1758629;80;21042;-69
2021/11/28 06:29:47;;;;;;;14.47;6.75;;;;;;;4.44;71.62;99389.76;1754039;79;21538;-71
2021/11/28 06:32:15;;;;;;;11.33;6.80;;;;;;;4.50;71.72;99391.09;1758566;80;21030;-70
2021/11/28 06:34:58;;;;;;;18.20;7.25;;;;;;;4.58;71.63;99386.16;1671134;84;21150;-70
2021/11/28 06:37:29;;;;;;;17.15;7.70;;;;;;;4.63;71.42;99399.70;1737528;80;21043;-69
2021/11/28 06:39:58;;;;;;;10.38;6.17;;;;;;;4.64;71.39;99401.38;1751829;79;21072;-69
2021/11/28 06:42:36;;;;;;;15.13;7.30;;;;;;;4.65;71.43;99404.33;1752466;80;21494;-69
2021/11/28 06:45:04;;;;;;;11.20;7.22;;;;;;;4.66;71.22;99410.39;1747081;79;21668;-69
2021/11/28 06:47:33;;;;;;;19.25;7.50;;;;;;;4.64;71.18;99411.80;1755481;80;21148;-69
2021/11/28 06:49:59;;;;;;;14.20;6.78;;;;;;;4.65;71.31;99405.63;1731531;80;21467;-69
2021/11/28 06:52:45;;;;;;;13.73;7.07;;;;;;;4.67;71.35;99398.19;1752155;79;21126;-68
2021/11/28 06:55:24;;;;;;;11.08;6.95;;;;;;;4.77;71.32;99393.97;1752887;80;21624;-68
2021/11/28 06:57:52;;;;;;;13.15;7.78;;;;;;;4.91;70.89;99390.37;1751454;79;21109;-67
2021/11/28 07:00:22;;;;;;;11.65;7.40;;;;;;;5.01;70.70;99381.78;1754898;79;21141;-67
2021/11/28 07:02:48;;;;;;;12.37;6.75;;;;;;;5.12;70.68;99384.08;1752854;79;21058;-69
2021/11/28 07:05:34;;;;;;;19.02;8.05;;;;;;;5.20;70.47;99379.12;1758064;79;22224;-67
2021/11/28 07:08:04;;;;;;;16.07;7.95;;;;;;;5.22;70.57;99373.32;1753407;79;21930;-67
2021/11/28 07:10:33;;;;;;;16.82;8.30;;;;;;;5.26;70.66;99382.59;1743990;80;21133;-67
2021/11/28 07:13:03;;;;;;;14.18;8.10;;;;;;;5.30;70.32;99391.02;1753231;80;21751;-68
2021/11/28 07:15:30;;;;;;;15.30;8.33;;;;;;;5.31;70.05;99389.61;1750569;80;22290;-68
2021/11/28 07:17:56;;;;;;;10.93;7.28;;;;;;;5.27;69.74;99385.55;1753315;80;21064;-69
2021/11/28 07:20:25;;;;;;;18.30;8.35;;;;;;;5.27;69.84;99383.42;1684484;80;21000;-67
2021/11/28 07:22:55;;;;;;;17.17;7.55;;;;;;;5.25;69.82;99383.53;1760468;80;21137;-63
2021/11/28 07:25:22;;;;;;;12.73;8.30;;;;;;;5.28;69.60;99387.67;1757697;79;21055;-69
2021/11/28 07:27:51;;;;;;;13.13;7.55;;;;;;;5.37;69.34;99387.01;1749958;79;21204;-67
2021/11/28 07:30:18;;;;;;;9.68;6.67;;;;;;;5.43;69.29;99383.95;1748418;79;21668;-68
2021/11/28 07:32:46;;;;;;;10.78;7.30;;;;;;;5.48;69.41;99389.66;1760576;79;21125;-69
2021/11/28 07:35:20;;;;;;;15.00;7.30;;;;;;;5.56;69.50;99399.50;1747822;79;21122;-68
2021/11/28 07:37:58;;;;;;;15.72;7.60;;;;;;;5.61;69.69;99388.24;1752718;79;21083;-67
2021/11/28 07:40:25;;;;;;;14.78;7.78;;;;;;;5.61;69.26;99402.59;1754274;80;21134;-67
2021/11/28 07:42:59;;;;;;;12.50;7.53;;;;;;;5.57;69.48;99401.18;1752562;80;21043;-68
2021/11/28 07:45:28;;;;;;;14.30;7.45;;;;;;;5.56;69.67;99396.44;1751070;79;21079;-66
2021/11/28 07:48:13;;;;;;;15.53;7.80;;;;;;;5.55;69.47;99391.33;1752386;79;21517;-68
2021/11/28 07:50:42;;;;;;;17.02;7.33;;;;;;;5.50;69.58;99392.16;1756863;79;21965;-69
2021/11/28 07:53:09;;;;;;;12.00;6.72;;;;;;;5.52;69.58;99388.95;1736771;80;21008;-68
2021/11/28 07:55:35;;;;;;;11.38;6.78;;;;;;;5.61;69.19;99393.95;1752141;80;21126;-68
2021/11/28 07:58:13;;;;;;;13.05;7.33;;;;;;;5.65;69.30;99386.23;1710052;81;21168;-65
2021/11/28 08:00:48;;;;;;;10.13;6.95;;;;;;;5.72;69.62;99381.75;1744212;79;21069;-66
2021/11/28 08:03:25;;;;;;;13.78;7.20;;;;;;;5.83;69.78;99390.05;1739484;80;21231;-68
2021/11/28 08:05:59;;;;;;;12.25;6.15;;;;;;;5.88;69.86;99384.49;1727926;80;21525;-68
2021/11/28 08:08:43;;;;;;;17.77;7.65;;;;;;;5.93;69.75;99382.36;1753754;80;21687;-68
2021/11/28 08:11:31;;;;;;;12.07;7.05;;;;;;;5.96;69.72;99383.47;1752861;79;21589;-64
2021/11/28 08:13:59;;;;;;;11.97;6.33;;;;;;;5.95;69.44;99383.91;1688930;83;21077;-65
2021/11/28 08:16:25;;;;;;;13.60;6.90;;;;;;;5.92;69.21;99380.72;1756715;80;21129;-63
2021/11/28 08:18:52;;;;;;;16.90;6.85;;;;;;;5.85;68.96;99389.94;1753492;80;21110;-63
2021/11/28 08:21:22;;;;;;;10.72;6.10;;;;;;;5.84;69.00;99393.52;1756574;80;21098;-64
2021/11/28 08:23:47;;;;;;;11.43;6.90;;;;;;;5.91;69.22;99398.14;1755831;80;21086;-61
2021/11/28 08:26:14;;;;;;;10.43;6.08;;;;;;;6.04;69.65;99395.95;1755707;79;21098;-63
2021/11/28 08:28:41;;;;;;;11.45;7.12;;;;;;;6.20;69.92;99391.17;1736110;80;21098;-64
2021/11/28 08:31:07;;;;;;;13.03;7.33;;;;;;;6.31;69.76;99382.52;1755722;80;21090;-63
2021/11/28 08:33:37;;;;;;;12.73;7.10;;;;;;;6.38;69.49;99390.70;1758177;79;21094;-62
2021/11/28 08:36:23;;;;;;;11.43;7.20;;;;;;;6.41;69.28;99389.98;1752354;79;22418;-63
2021/11/28 08:38:48;;;;;;;11.53;7.60;;;;;;;6.43;69.35;99386.77;1754199;79;21039;-61
2021/11/28 08:41:15;;;;;;;10.93;5.90;;;;;;;6.41;69.16;99387.38;1749431;79;21138;-61
2021/11/28 08:43:42;;;;;;;12.35;7.37;;;;;;;6.38;68.74;99388.09;1751271;80;21016;-62
2021/11/28 08:46:09;;;;;;;14.98;6.85;;;;;;;6.31;68.95;99390.36;1744390;80;21565;-63
2021/11/28 08:48:35;;;;;;;11.75;6.10;;;;;;;6.32;69.03;99383.70;1733584;80;21600;-63
2021/11/28 08:51:02;;;;;;;10.55;6.00;;;;;;;6.42;69.04;99381.20;1755949;80;21043;-64
2021/11/28 08:53:30;;;;;;;9.83;5.90;;;;;;;6.57;68.99;99378.31;1755949;80;21120;-64
2021/11/28 08:55:57;;;;;;;13.05;7.92;;;;;;;6.63;68.69;99380.45;1752553;80;21142;-62
2021/11/28 08:58:23;;;;;;;12.70;6.83;;;;;;;6.67;69.04;99377.94;1756521;80;21043;-63
2021/11/28 09:00:50;;;;;;;11.57;6.58;;;;;;;6.70;68.95;99371.98;1736797;80;21086;-62
2021/11/28 09:03:16;;;;;;;17.95;7.08;;;;;;;6.69;68.97;99377.33;1751733;79;21086;-63
2021/11/28 09:05:43;;;;;;;13.35;7.35;;;;;;;6.68;69.09;99376.99;1751648;79;21137;-62
2021/11/28 09:08:09;;;;;;;13.28;6.42;;;;;;;6.70;69.43;99379.00;1744468;80;21510;-67
2021/11/28 09:10:41;;;;;;;10.60;6.10;;;;;;;6.76;69.22;99374.59;1756833;79;21432;-68
2021/11/28 09:13:08;;;;;;;11.30;6.58;;;;;;;6.83;68.58;99382.30;1745817;80;21554;-62
2021/11/28 09:15:35;;;;;;;10.00;6.42;;;;;;;6.87;68.76;99371.92;1757157;79;21095;-64
2021/11/28 09:18:12;;;;;;;10.88;6.40;;;;;;;6.94;68.88;99371.44;1752753;80;21074;-63
2021/11/28 09:20:31;;;;;;;12.10;6.67;;;;;;;6.96;69.07;99359.06;1751603;79;21023;-63
2021/11/28 09:25:30;;;;;;;12.40;7.12;;;;;;;7.07;69.17;99355.10;1749235;79;21070;-61
2021/11/28 09:28:00;;;;;;;11.43;7.28;;;;;;;7.11;68.86;99351.30;1750679;79;21569;-63
2021/11/28 09:30:28;;;;;;;11.78;6.65;;;;;;;7.09;68.92;99354.98;1755181;79;21531;-62
2021/11/28 09:32:56;;;;;;;11.12;6.85;;;;;;;7.06;68.77;99354.73;1730580;80;21085;-62
2021/11/28 09:35:23;;;;;;;9.33;6.55;;;;;;;7.08;68.96;99359.39;1737453;80;21106;-63
2021/11/28 09:37:50;;;;;;;9.78;6.33;;;;;;;7.20;68.88;99355.76;1752916;80;21071;-63
2021/11/28 09:40:18;;;;;;;10.82;7.20;;;;;;;7.33;68.76;99344.27;1749120;79;21141;-63
2021/11/28 09:42:56;;;;;;;10.55;7.22;;;;;;;7.44;68.78;99343.72;1739859;80;21090;-61
2021/11/28 09:45:23;;;;;;;11.08;7.37;;;;;;;7.58;69.01;99353.06;1748100;80;21472;-63
2021/11/28 09:47:50;;;;;;;12.70;7.05;;;;;;;7.68;68.77;99352.27;1732176;80;21070;-63
2021/11/28 09:50:17;;;;;;;11.85;7.58;;;;;;;7.75;68.62;99346.86;1756643;80;21415;-62
2021/11/28 09:52:46;;;;;;;11.90;7.70;;;;;;;7.81;68.28;99347.66;1754626;79;21098;-63
2021/11/28 09:55:13;;;;;;;15.48;8.48;;;;;;;7.77;67.91;99336.61;1747692;80;21086;-62
2021/11/28 09:57:40;;;;;;;13.13;7.58;;;;;;;7.73;67.89;99331.30;1754633;79;21220;-63
2021/11/28 10:00:10;;;;;;;11.43;7.58;;;;;;;7.70;67.93;99336.80;1763072;79;21076;-61
2021/11/28 10:02:39;;;;;;;13.30;7.55;;;;;;;7.71;67.90;99324.03;1751450;79;21127;-63
2021/11/28 10:05:10;;;;;;;12.35;7.37;;;;;;;7.74;67.61;99323.78;1757962;79;21342;-63
2021/11/28 10:07:45;;;;;;;11.53;7.75;;;;;;;7.84;67.44;99326.45;1737911;80;21071;-64
2021/11/28 10:10:15;;;;;;;13.08;7.33;;;;;;;7.93;67.57;99319.58;1750587;80;21122;-63
2021/11/28 10:12:50;;;;;;;13.03;8.00;;;;;;;8.00;67.72;99325.48;1753261;80;21054;-63
2021/11/28 10:15:23;;;;;;;12.30;7.87;;;;;;;8.00;67.38;99317.63;1748780;80;21039;-63
2021/11/28 10:17:51;;;;;;;14.78;9.53;;;;;;;7.97;67.63;99322.30;1751042;80;21648;-63
2021/11/28 10:20:21;;;;;;;16.67;8.80;;;;;;;7.98;67.80;99330.03;1758980;80;22331;-63
2021/11/28 10:22:50;;;;;;;14.95;9.45;;;;;;;7.98;67.84;99333.11;1717403;82;21137;-63
2021/11/28 10:25:27;;;;;;;14.75;9.05;;;;;;;7.96;67.75;99331.93;1745595;80;21094;-63
2021/11/28 10:28:04;;;;;;;14.45;9.03;;;;;;;7.92;67.85;99329.23;1753409;79;21086;-62
2021/11/28 10:30:37;;;;;;;18.15;8.78;;;;;;;7.93;67.78;99316.47;1745449;80;21060;-64
2021/11/28 10:33:16;;;;;;;14.70;8.50;;;;;;;8.00;67.60;99320.70;1755640;80;21111;-63
2021/11/28 10:36:03;;;;;;;13.68;8.88;;;;;;;8.04;67.74;99316.05;1753197;80;21542;-63
2021/11/28 10:38:40;;;;;;;16.67;8.90;;;;;;;8.10;68.04;99328.14;1735994;80;21129;-64
2021/11/28 10:41:27;;;;;;;13.90;8.80;;;;;;;8.12;68.12;99322.28;1737121;80;21113;-61
2021/11/28 10:43:55;;;;;;;15.63;8.88;;;;;;;8.14;68.48;99309.88;1752949;79;21062;-65
2021/11/28 10:46:30;;;;;;;15.95;9.20;;;;;;;8.19;68.45;99309.48;1754904;79;21086;-64
2021/11/28 10:49:13;;;;;;;13.98;9.43;;;;;;;8.22;68.23;99304.44;1756734;79;28451;-62
2021/11/28 10:51:44;;;;;;;14.33;8.53;;;;;;;8.21;68.20;99294.93;1758048;80;20999;-67
2021/11/28 10:54:30;;;;;;;12.85;9.05;;;;;;;8.22;68.37;99295.27;1755989;79;21074;-65
2021/11/28 10:57:10;;;;;;;;;;;;;;;8.24;68.23;99294.17;1742694;80;21019;-63
2021/11/28 10:59:39;;;;;;;13.58;8.33;;;;;;;8.31;67.98;99291.36;1754696;80;21983;-62
2021/11/28 11:02:32;;;;;;;16.35;9.88;;;;;;;8.32;68.10;99285.63;1722831;81;21182;-64
2021/11/28 11:05:01;;;;;;;11.68;8.20;;;;;;;8.38;68.09;99279.84;1748557;80;21465;-64
2021/11/28 11:07:28;;;;;;;15.20;9.98;;;;;;;8.41;68.25;99274.83;1736273;80;21105;-65
2021/11/28 11:09:55;;;;;;;16.15;9.80;;;;;;;8.43;68.22;99278.17;1706131;80;21133;-62
2021/11/28 11:12:27;;;;;;;14.47;9.13;;;;;;;8.41;68.23;99272.21;1762721;79;21082;-67
2021/11/28 11:14:58;;;;;;;13.43;9.48;;;;;;;8.41;68.36;99270.90;1754698;79;21136;-72
2021/11/28 11:17:27;;;;;;;13.43;9.88;;;;;;;8.40;68.42;99290.20;1740337;80;21070;-63
2021/11/28 11:19:55;;;;;;;16.30;10.35;;;;;;;8.38;68.61;99284.60;1761497;79;21059;-63
2021/11/28 11:22:31;;;;;;;15.85;9.75;;;;;;;8.37;68.61;99282.11;1760008;80;21101;-63
2021/11/28 11:25:03;;;;;;;14.83;9.65;;;;;;;8.42;68.68;99279.91;1728155;80;21596;-67
2021/11/28 11:27:36;;;;;;;15.93;9.40;;;;;;;8.51;68.62;99276.52;1761706;79;21605;-64
2021/11/28 11:30:20;;;;;;;15.83;9.98;;;;;;;8.58;68.50;99275.48;1737580;80;21117;-62
2021/11/28 11:32:54;;;;;;;13.88;9.40;;;;;;;8.64;68.66;99278.88;1758255;79;22219;-63
2021/11/28 11:35:26;;;;;;;14.50;9.30;;;;;;;8.72;68.80;99280.34;1740300;80;21058;-64
2021/11/28 11:37:56;;;;;;;15.20;9.38;;;;;;;8.79;68.40;99283.70;1762467;79;21154;-63
2021/11/28 11:40:25;;;;;;;15.43;10.55;;;;;;;8.76;68.27;99282.20;1738111;80;21074;-65
2021/11/28 11:42:52;;;;;;;18.12;9.73;;;;;;;8.73;68.16;99278.05;1754113;79;21074;-64
2021/11/28 11:45:21;;;;;;;15.48;9.63;;;;;;;8.68;68.23;99279.44;1761237;80;21089;-64
2021/11/28 11:47:48;;;;;;;14.68;9.93;;;;;;;8.62;68.21;99278.17;1758766;79;21098;-65
2021/11/28 11:50:35;;;;;;;16.48;9.80;;;;;;;8.63;68.22;99273.77;1765816;80;21601;-64
2021/11/28 11:53:05;;;;;;;15.75;10.03;;;;;;;8.69;68.24;99267.95;1713445;83;21635;-64